sensor_id;sensor_type;location;lat;lon;timestamp;pressure;altitude;pressure_sealevel;temperature;humidity
35908;BME280;22003;50.320;8.054;2023-02-18T05:02:28;100233.97;;;9.62;100.00
35908;BME280;22003;50.320;8.054;2023-02-18T05:04:53;100239.69;;;9.69;100.00
35908;BME280;22003;50.320;8.054;2023-02-18T05:07:18;100221.78;;;9.60;100.00
35908;BME280;22003;50.320;8.054;2023-02-18T05:09:44;100218.34;;;9.72;100.00
35908;BME280;22003;50.320;8.054;2023-02-18T05:12:09;100224.38;;;9.74;100.00
35908;BME280;22003;50.320;8.054;2023-02-18T05:14:34;100213.25;;;9.69;100.00
35908;BME280;22003;50.320;8.054;2023-02-18T05:17:00;100220.47;;;9.79;100.00
35908;BME280;22003;50.320;8.054;2023-02-18T05:19:25;100228.50;;;9.78;100.00
35908;BME280;22003;50.320;8.054;2023-02-18T05:21:50;100219.81;;;9.76;100.00
35908;BME280;22003;50.320;8.054;2023-02-18T05:24:15;100216.00;;;9.67;100.00
35908;BME280;22003;50.320;8.054;2023-02-18T05:26:41;100209.88;;;9.67;100.00
35908;BME280;22003;50.320;8.054;2023-02-18T05:29:06;100216.44;;;9.74;100.00
35908;BME280;22003;50.320;8.054;2023-02-18T05:31:31;100200.97;;;9.68;100.00
35908;BME280;22003;50.320;8.054;2023-02-18T05:33:57;100219.38;;;9.82;100.00
35908;BME280;22003;50.320;8.054;2023-02-18T05:36:22;100213.06;;;9.85;100.00
35908;BME280;22003;50.320;8.054;2023-02-18T05:38:47;100208.63;;;9.85;100.00
35908;BME280;22003;50.320;8.054;2023-02-18T05:41:13;100201.81;;;9.81;100.00
35908;BME280;22003;50.320;8.054;2023-02-18T05:43:38;100205.25;;;9.96;100.00
35908;BME280;22003;50.320;8.054;2023-02-18T05:46:22;100205.44;;;9.93;100.00
35908;BME280;22003;50.320;8.054;2023-02-18T05:48:48;100189.47;;;9.94;100.00
35908;BME280;22003;50.320;8.054;2023-02-18T05:51:13;100184.69;;;9.87;100.00
35908;BME280;22003;50.320;8.054;2023-02-18T05:53:39;100198.16;;;9.96;100.00
35908;BME280;22003;50.320;8.054;2023-02-18T05:56:04;100187.03;;;9.91;100.00
35908;BME280;22003;50.320;8.054;2023-02-18T05:58:30;100202.38;;;9.86;100.00
35908;BME280;22003;50.320;8.054;2023-02-18T06:00:55;100181.50;;;9.69;100.00
35908;BME280;22003;50.320;8.054;2023-02-18T06:03:20;100175.13;;;9.71;100.00
35908;BME280;22003;50.320;8.054;2023-02-18T06:05:49;100184.06;;;9.83;100.00
35908;BME280;22003;50.320;8.054;2023-02-18T06:08:14;100157.78;;;9.80;100.00
35908;BME280;22003;50.320;8.054;2023-02-18T06:10:39;100187.56;;;9.84;100.00
35908;BME280;22003;50.320;8.054;2023-02-18T06:13:04;100148.69;;;9.71;100.00
35908;BME280;22003;50.320;8.054;2023-02-18T06:15:30;100161.41;;;9.79;100.00
35908;BME280;22003;50.320;8.054;2023-02-18T06:17:55;100186.78;;;9.82;100.00
35908;BME280;22003;50.320;8.054;2023-02-18T06:20:20;100174.63;;;9.79;100.00
35908;BME280;22003;50.320;8.054;2023-02-18T06:22:45;100165.06;;;9.64;100.00
35908;BME280;22003;50.320;8.054;2023-02-18T06:25:11;100184.69;;;9.74;100.00
35908;BME280;22003;50.320;8.054;2023-02-18T06:27:36;100175.06;;;9.73;100.00
35908;BME280;22003;50.320;8.054;2023-02-18T06:30:01;100181.63;;;9.80;100.00
35908;BME280;22003;50.320;8.054;2023-02-18T06:32:27;100155.44;;;9.63;100.00
35908;BME280;22003;50.320;8.054;2023-02-18T06:34:52;100140.13;;;9.68;100.00
35908;BME280;22003;50.320;8.054;2023-02-18T06:37:17;100173.88;;;9.77;100.00
35908;BME280;22003;50.320;8.054;2023-02-18T06:39:42;100170.28;;;9.78;100.00
35908;BME280;22003;50.320;8.054;2023-02-18T06:42:08;100159.69;;;9.65;100.00
35908;BME280;22003;50.320;8.054;2023-02-18T06:44:33;100164.03;;;9.66;100.00
35908;BME280;22003;50.320;8.054;2023-02-18T06:46:58;100176.00;;;9.72;100.00
35908;BME280;22003;50.320;8.054;2023-02-18T06:49:23;100158.84;;;9.65;100.00
35908;BME280;22003;50.320;8.054;2023-02-18T06:51:49;100171.75;;;9.69;100.00
35908;BME280;22003;50.320;8.054;2023-02-18T06:54:14;100163.94;;;9.81;100.00
35908;BME280;22003;50.320;8.054;2023-02-18T06:56:39;100150.06;;;9.77;99.32
35908;BME280;22003;50.320;8.054;2023-02-18T06:59:04;100156.00;;;9.68;99.20
35908;BME280;22003;50.320;8.054;2023-02-18T07:01:30;100143.31;;;9.73;98.98
35908;BME280;22003;50.320;8.054;2023-02-18T07:03:55;100147.09;;;9.82;97.79
35908;BME280;22003;50.320;8.054;2023-02-18T07:06:20;100125.94;;;9.69;97.39
35908;BME280;22003;50.320;8.054;2023-02-18T07:08:45;100156.41;;;9.74;97.55
35908;BME280;22003;50.320;8.054;2023-02-18T07:11:11;100166.69;;;9.79;97.84
35908;BME280;22003;50.320;8.054;2023-02-18T07:13:36;100171.03;;;9.80;98.23
35908;BME280;22003;50.320;8.054;2023-02-18T07:16:01;100146.56;;;9.64;97.53
35908;BME280;22003;50.320;8.054;2023-02-18T07:18:26;100143.59;;;9.68;98.49
35908;BME280;22003;50.320;8.054;2023-02-18T07:20:52;100141.50;;;9.73;97.29
35908;BME280;22003;50.320;8.054;2023-02-18T07:23:17;100162.91;;;9.83;97.57
35908;BME280;22003;50.320;8.054;2023-02-18T07:25:42;100153.78;;;9.87;97.61
35908;BME280;22003;50.320;8.054;2023-02-18T07:28:10;100159.06;;;9.87;98.13
35908;BME280;22003;50.320;8.054;2023-02-18T07:30:35;100142.13;;;9.64;98.67
35908;BME280;22003;50.320;8.054;2023-02-18T07:33:00;100169.44;;;10.03;97.73
35908;BME280;22003;50.320;8.054;2023-02-18T07:35:26;100159.28;;;9.84;97.72
35908;BME280;22003;50.320;8.054;2023-02-18T07:37:51;100158.44;;;9.96;95.42
35908;BME280;22003;50.320;8.054;2023-02-18T07:40:18;100158.44;;;9.96;96.28
35908;BME280;22003;50.320;8.054;2023-02-18T07:42:44;100148.69;;;9.97;94.94
35908;BME280;22003;50.320;8.054;2023-02-18T07:45:10;100121.25;;;9.60;96.48
35908;BME280;22003;50.320;8.054;2023-02-18T07:47:36;100159.06;;;9.87;97.19
35908;BME280;22003;50.320;8.054;2023-02-18T07:50:01;100148.91;;;10.07;96.29
35908;BME280;22003;50.320;8.054;2023-02-18T07:52:26;100138.13;;;9.84;96.31
35908;BME280;22003;50.320;8.054;2023-02-18T07:54:52;100134.28;;;9.75;97.05
35908;BME280;22003;50.320;8.054;2023-02-18T07:57:17;100146.38;;;9.92;96.11
35908;BME280;22003;50.320;8.054;2023-02-18T07:59:42;100153.34;;;9.93;95.65
35908;BME280;22003;50.320;8.054;2023-02-18T08:02:15;100157.59;;;9.96;95.84
35908;BME280;22003;50.320;8.054;2023-02-18T08:04:41;100162.25;;;9.92;96.13
35908;BME280;22003;50.320;8.054;2023-02-18T08:07:06;100153.13;;;10.09;94.33
35908;BME280;22003;50.320;8.054;2023-02-18T08:09:32;100170.28;;;10.03;94.35
35908;BME280;22003;50.320;8.054;2023-02-18T08:11:57;100154.34;;;10.05;93.39
35908;BME280;22003;50.320;8.054;2023-02-18T08:14:22;100161.09;;;10.09;93.29
35908;BME280;22003;50.320;8.054;2023-02-18T08:16:47;100172.84;;;10.18;91.83
35908;BME280;22003;50.320;8.054;2023-02-18T08:19:13;100166.19;;;10.12;92.40
35908;BME280;22003;50.320;8.054;2023-02-18T08:21:38;100190.13;;;10.36;91.34
35908;BME280;22003;50.320;8.054;2023-02-18T08:24:04;100160.34;;;10.20;90.73
35908;BME280;22003;50.320;8.054;2023-02-18T08:26:29;100170.19;;;10.18;90.91
35908;BME280;22003;50.320;8.054;2023-02-18T08:28:54;100184.63;;;10.26;90.46
35908;BME280;22003;50.320;8.054;2023-02-18T08:31:24;100186.19;;;10.42;89.78
35908;BME280;22003;50.320;8.054;2023-02-18T08:33:51;100177.28;;;10.55;89.97
35908;BME280;22003;50.320;8.054;2023-02-18T08:36:17;100170.91;;;10.58;89.12
35908;BME280;22003;50.320;8.054;2023-02-18T08:38:42;100180.03;;;10.67;87.87
35908;BME280;22003;50.320;8.054;2023-02-18T08:41:08;100168.81;;;10.50;88.24
35908;BME280;22003;50.320;8.054;2023-02-18T08:43:34;100176.75;;;10.38;87.96
35908;BME280;22003;50.320;8.054;2023-02-18T08:45:59;100184.06;;;10.47;88.37
35908;BME280;22003;50.320;8.054;2023-02-18T08:48:25;100183.44;;;10.43;88.96
35908;BME280;22003;50.320;8.054;2023-02-18T08:50:51;100178.59;;;10.24;89.06
35908;BME280;22003;50.320;8.054;2023-02-18T08:53:16;100189.41;;;10.34;88.93
35908;BME280;22003;50.320;8.054;2023-02-18T08:55:42;100196.59;;;10.32;89.24
35908;BME280;22003;50.320;8.054;2023-02-18T08:58:07;100159.81;;;10.15;88.52
35908;BME280;22003;50.320;8.054;2023-02-18T09:00:33;100156.19;;;10.16;88.44
35908;BME280;22003;50.320;8.054;2023-02-18T09:02:59;100163.97;;;10.06;88.93
35908;BME280;22003;50.320;8.054;2023-02-18T09:05:24;100187.25;;;10.14;88.63
35908;BME280;22003;50.320;8.054;2023-02-18T09:07:49;100183.09;;;10.10;88.81
35908;BME280;22003;50.320;8.054;2023-02-18T09:10:14;100205.78;;;10.26;88.34
35908;BME280;22003;50.320;8.054;2023-02-18T09:12:40;100178.75;;;10.21;88.20
35908;BME280;22003;50.320;8.054;2023-02-18T09:15:05;100170.53;;;10.26;87.20
35908;BME280;22003;50.320;8.054;2023-02-18T09:17:31;100186.50;;;10.37;86.59
35908;BME280;22003;50.320;8.054;2023-02-18T09:19:56;100176.97;;;10.22;86.78
35908;BME280;22003;50.320;8.054;2023-02-18T09:22:21;100187.28;;;10.39;85.76
35908;BME280;22003;50.320;8.054;2023-02-18T09:24:47;100193.19;;;10.17;85.39
35908;BME280;22003;50.320;8.054;2023-02-18T09:27:12;100212.25;;;10.22;86.13
35908;BME280;22003;50.320;8.054;2023-02-18T09:29:38;100213.09;;;10.23;86.63
35908;BME280;22003;50.320;8.054;2023-02-18T09:32:05;100207.81;;;10.23;86.03
35908;BME280;22003;50.320;8.054;2023-02-18T09:34:31;100200.41;;;10.28;85.74
35908;BME280;22003;50.320;8.054;2023-02-18T09:36:56;100206.13;;;10.35;85.71
35908;BME280;22003;50.320;8.054;2023-02-18T09:39:22;100202.09;;;10.29;85.42
35908;BME280;22003;50.320;8.054;2023-02-18T09:41:53;100199.09;;;10.21;85.40
35908;BME280;22003;50.320;8.054;2023-02-18T09:44:22;100218.84;;;10.29;85.51
35908;BME280;22003;50.320;8.054;2023-02-18T09:46:52;100206.50;;;10.16;85.22
35908;BME280;22003;50.320;8.054;2023-02-18T09:49:26;100217.44;;;10.37;85.48
35908;BME280;22003;50.320;8.054;2023-02-18T09:51:56;100217.34;;;10.38;85.28
35908;BME280;22003;50.320;8.054;2023-02-18T09:54:27;100216.59;;;10.36;85.98
35908;BME280;22003;50.320;8.054;2023-02-18T09:56:52;100219.16;;;10.50;86.42
35908;BME280;22003;50.320;8.054;2023-02-18T09:59:20;100204.41;;;10.59;87.01
35908;BME280;22003;50.320;8.054;2023-02-18T10:01:50;100209.06;;;10.68;86.70
35908;BME280;22003;50.320;8.054;2023-02-18T10:04:20;100193.16;;;10.68;85.89
35908;BME280;22003;50.320;8.054;2023-02-18T10:06:49;100196.91;;;10.40;87.14
35908;BME280;22003;50.320;8.054;2023-02-18T10:11:50;100210.91;;;10.29;90.29
35908;BME280;22003;50.320;8.054;2023-02-18T10:14:16;100203.06;;;10.28;90.74
35908;BME280;22003;50.320;8.054;2023-02-18T10:16:43;100207.94;;;10.34;92.16
35908;BME280;22003;50.320;8.054;2023-02-18T10:19:39;100204.97;;;10.26;92.63
35908;BME280;22003;50.320;8.054;2023-02-18T10:22:07;100197.97;;;10.25;92.81
35908;BME280;22003;50.320;8.054;2023-02-18T10:24:52;100215.09;;;10.07;93.83
35908;BME280;22003;50.320;8.054;2023-02-18T10:27:33;100206.19;;;10.08;94.86
35908;BME280;22003;50.320;8.054;2023-02-18T10:32:43;100191.66;;;10.64;91.43
35908;BME280;22003;50.320;8.054;2023-02-18T10:35:22;100200.75;;;10.86;89.83
35908;BME280;22003;50.320;8.054;2023-02-18T10:38:19;100207.53;;;10.90;88.82
35908;BME280;22003;50.320;8.054;2023-02-18T10:41:05;100207.44;;;10.66;89.58
35908;BME280;22003;50.320;8.054;2023-02-18T10:43:51;100177.91;;;10.72;88.80
35908;BME280;22003;50.320;8.054;2023-02-18T10:51:55;100172.00;;;10.43;88.04
35908;BME280;22003;50.320;8.054;2023-02-18T10:54:25;100172.84;;;10.43;88.00
35908;BME280;22003;50.320;8.054;2023-02-18T10:56:53;100173.81;;;10.55;87.83
35908;BME280;22003;50.320;8.054;2023-02-18T10:59:32;100160.03;;;10.50;87.76
35908;BME280;22003;50.320;8.054;2023-02-18T11:02:10;100159.38;;;10.46;87.05
35908;BME280;22003;50.320;8.054;2023-02-18T11:04:40;100145.69;;;10.52;86.61
35908;BME280;22003;50.320;8.054;2023-02-18T11:07:17;100174.50;;;10.70;86.34
35908;BME280;22003;50.320;8.054;2023-02-18T11:09:52;100158.31;;;10.49;85.21
35908;BME280;22003;50.320;8.054;2023-02-18T11:12:22;100166.78;;;10.67;84.95
35908;BME280;22003;50.320;8.054;2023-02-18T11:15:02;100159.28;;;10.48;85.56
35908;BME280;22003;50.320;8.054;2023-02-18T11:17:33;100155.91;;;10.46;86.03
35908;BME280;22003;50.320;8.054;2023-02-18T11:20:01;100132.81;;;10.35;85.38
35908;BME280;22003;50.320;8.054;2023-02-18T11:22:30;100144.25;;;10.23;85.43
35908;BME280;22003;50.320;8.054;2023-02-18T11:24:59;100140.25;;;10.30;86.00
35908;BME280;22003;50.320;8.054;2023-02-18T11:27:31;100131.84;;;10.36;85.93
35908;BME280;22003;50.320;8.054;2023-02-18T11:30:05;100103.97;;;10.43;85.10
35908;BME280;22003;50.320;8.054;2023-02-18T11:32:34;100090.13;;;10.40;85.10
35908;BME280;22003;50.320;8.054;2023-02-18T11:35:02;100104.94;;;10.42;85.06
35908;BME280;22003;50.320;8.054;2023-02-18T11:37:31;100107.19;;;10.72;84.55
35908;BME280;22003;50.320;8.054;2023-02-18T11:39:57;100094.06;;;10.58;84.69
35908;BME280;22003;50.320;8.054;2023-02-18T11:42:24;100081.34;;;10.63;84.48
35908;BME280;22003;50.320;8.054;2023-02-18T11:44:55;100099.75;;;10.77;84.67
35908;BME280;22003;50.320;8.054;2023-02-18T11:47:33;100076.56;;;10.68;84.49
35908;BME280;22003;50.320;8.054;2023-02-18T11:52:37;100089.63;;;10.82;84.46
35908;BME280;22003;50.320;8.054;2023-02-18T11:55:05;100084.22;;;11.08;83.32
35908;BME280;22003;50.320;8.054;2023-02-18T11:57:36;100077.19;;;10.96;83.33
35908;BME280;22003;50.320;8.054;2023-02-18T12:00:59;100070.56;;;11.01;83.19
35908;BME280;22003;50.320;8.054;2023-02-18T12:03:02;100082.34;;;11.68;81.69
35908;BME280;22003;50.320;8.054;2023-02-18T12:05:31;100085.72;;;11.81;81.14
35908;BME280;22003;50.320;8.054;2023-02-18T12:08:06;100117.44;;;11.71;80.42
35908;BME280;22003;50.320;8.054;2023-02-18T12:10:37;100079.16;;;11.51;81.40
35908;BME280;22003;50.320;8.054;2023-02-18T12:16:13;100105.22;;;11.11;82.10
35908;BME280;22003;50.320;8.054;2023-02-18T12:19:02;100094.16;;;11.17;83.01
35908;BME280;22003;50.320;8.054;2023-02-18T12:21:58;100093.38;;;11.39;82.07
35908;BME280;22003;50.320;8.054;2023-02-18T12:28:03;100116.47;;;11.26;85.79
35908;BME280;22003;50.320;8.054;2023-02-18T12:31:09;100117.16;;;11.17;87.01
35908;BME280;22003;50.320;8.054;2023-02-18T12:34:05;100093.81;;;10.98;88.52
35908;BME280;22003;50.320;8.054;2023-02-18T12:36:52;100099.38;;;10.82;89.93
35908;BME280;22003;50.320;8.054;2023-02-18T12:39:31;100106.75;;;10.78;90.54
35908;BME280;22003;50.320;8.054;2023-02-18T12:45:24;100127.69;;;10.57;93.59
35908;BME280;22003;50.320;8.054;2023-02-18T12:59:13;100134.66;;;10.58;94.80
35908;BME280;22003;50.320;8.054;2023-02-18T13:01:35;100143.38;;;10.61;96.15
35908;BME280;22003;50.320;8.054;2023-02-18T13:04:20;100130.84;;;10.63;96.97
35908;BME280;22003;50.320;8.054;2023-02-18T13:10:17;100111.41;;;10.99;96.23
35908;BME280;22003;50.320;8.054;2023-02-18T13:15:36;100121.22;;;10.86;96.25
35908;BME280;22003;50.320;8.054;2023-02-18T13:18:08;100125.44;;;10.64;97.03
35908;BME280;22003;50.320;8.054;2023-02-18T13:20:39;100120.59;;;10.82;97.76
35908;BME280;22003;50.320;8.054;2023-02-18T13:23:06;100106.75;;;10.66;98.16
35908;BME280;22003;50.320;8.054;2023-02-18T13:25:37;100126.44;;;10.50;97.96
35908;BME280;22003;50.320;8.054;2023-02-18T13:28:20;100137.25;;;10.47;98.40
35908;BME280;22003;50.320;8.054;2023-02-18T13:30:55;100126.59;;;10.60;99.89
35908;BME280;22003;50.320;8.054;2023-02-18T13:33:43;100127.53;;;10.35;99.88
35908;BME280;22003;50.320;8.054;2023-02-18T13:41:40;100122.13;;;10.11;100.00
35908;BME280;22003;50.320;8.054;2023-02-18T13:46:56;100131.97;;;10.22;100.00
35908;BME280;22003;50.320;8.054;2023-02-18T13:49:31;100132.50;;;10.40;100.00
35908;BME280;22003;50.320;8.054;2023-02-18T13:51:58;100105.28;;;10.12;100.00
35908;BME280;22003;50.320;8.054;2023-02-18T13:57:06;100135.34;;;9.98;100.00
35908;BME280;22003;50.320;8.054;2023-02-18T13:59:40;100128.59;;;10.07;100.00
35908;BME280;22003;50.320;8.054;2023-02-18T14:07:31;100115.44;;;10.44;100.00
35908;BME280;22003;50.320;8.054;2023-02-18T14:12:38;100123.63;;;10.28;100.00
35908;BME280;22003;50.320;8.054;2023-02-18T14:17:43;100122.00;;;10.38;100.00
35908;BME280;22003;50.320;8.054;2023-02-18T14:22:48;100126.13;;;10.04;100.00
35908;BME280;22003;50.320;8.054;2023-02-18T14:27:46;100112.50;;;9.97;100.00
35908;BME280;22003;50.320;8.054;2023-02-18T14:30:37;100121.16;;;9.87;100.00
35908;BME280;22003;50.320;8.054;2023-02-18T14:33:04;100112.28;;;9.75;100.00
35908;BME280;22003;50.320;8.054;2023-02-18T14:35:34;100115.47;;;9.80;100.00
35908;BME280;22003;50.320;8.054;2023-02-18T14:38:16;100100.53;;;9.79;100.00
35908;BME280;22003;50.320;8.054;2023-02-18T14:40:55;100116.94;;;9.71;100.00
35908;BME280;22003;50.320;8.054;2023-02-18T14:43:46;100112.69;;;9.82;100.00
35908;BME280;22003;50.320;8.054;2023-02-18T14:46:55;100106.44;;;9.83;100.00
35908;BME280;22003;50.320;8.054;2023-02-18T14:49:35;100091.13;;;9.62;100.00
35908;BME280;22003;50.320;8.054;2023-02-18T14:52:03;100096.94;;;9.67;100.00
35908;BME280;22003;50.320;8.054;2023-02-18T14:54:31;100096.53;;;9.73;100.00
35908;BME280;22003;50.320;8.054;2023-02-18T14:56:59;100108.69;;;9.76;100.00
35908;BME280;22003;50.320;8.054;2023-02-18T14:59:28;100107.81;;;9.88;100.00
35908;BME280;22003;50.320;8.054;2023-02-18T15:01:56;100110.06;;;9.82;100.00
35908;BME280;22003;50.320;8.054;2023-02-18T15:04:23;100114.19;;;9.73;100.00
35908;BME280;22003;50.320;8.054;2023-02-18T15:07:00;100128.03;;;9.76;100.00
35908;BME280;22003;50.320;8.054;2023-02-18T15:09:26;100114.72;;;9.78;100.00
35908;BME280;22003;50.320;8.054;2023-02-18T15:12:00;100105.50;;;9.58;100.00
35908;BME280;22003;50.320;8.054;2023-02-18T15:14:31;100108.03;;;9.60;100.00
35908;BME280;22003;50.320;8.054;2023-02-18T15:16:58;100111.75;;;9.70;100.00
35908;BME280;22003;50.320;8.054;2023-02-18T15:19:31;100093.03;;;9.73;100.00
35908;BME280;22003;50.320;8.054;2023-02-18T15:21:59;100104.75;;;9.82;100.00
35908;BME280;22003;50.320;8.054;2023-02-18T15:24:29;100076.50;;;9.69;100.00
35908;BME280;22003;50.320;8.054;2023-02-18T15:26:58;100104.03;;;9.92;100.00
35908;BME280;22003;50.320;8.054;2023-02-18T15:29:27;100111.13;;;9.92;100.00
35908;BME280;22003;50.320;8.054;2023-02-18T15:31:55;100095.03;;;9.69;100.00
35908;BME280;22003;50.320;8.054;2023-02-18T15:36:55;100107.22;;;9.72;100.00
35908;BME280;22003;50.320;8.054;2023-02-18T15:39:21;100094.38;;;9.66;100.00
35908;BME280;22003;50.320;8.054;2023-02-18T15:41:54;100105.59;;;9.82;100.00
35908;BME280;22003;50.320;8.054;2023-02-18T15:44:26;100108.16;;;9.71;100.00
35908;BME280;22003;50.320;8.054;2023-02-18T15:46:52;100109.34;;;9.67;100.00
35908;BME280;22003;50.320;8.054;2023-02-18T15:49:22;100112.81;;;9.67;100.00
35908;BME280;22003;50.320;8.054;2023-02-18T15:51:48;100110.78;;;9.71;100.00
35908;BME280;22003;50.320;8.054;2023-02-18T15:54:20;100106.34;;;9.71;100.00
35908;BME280;22003;50.320;8.054;2023-02-18T15:56:50;100098.94;;;9.64;100.00
35908;BME280;22003;50.320;8.054;2023-02-18T15:59:23;100091.97;;;9.63;100.00
35908;BME280;22003;50.320;8.054;2023-02-18T16:01:55;100096.00;;;9.56;100.00
35908;BME280;22003;50.320;8.054;2023-02-18T16:04:23;100104.22;;;9.64;100.00
35908;BME280;22003;50.320;8.054;2023-02-18T16:06:51;100102.66;;;9.61;100.00
35908;BME280;22003;50.320;8.054;2023-02-18T16:09:28;100092.16;;;9.60;100.00
35908;BME280;22003;50.320;8.054;2023-02-18T16:11:56;100113.53;;;9.57;100.00
35908;BME280;22003;50.320;8.054;2023-02-18T16:14:45;100090.78;;;9.41;100.00
35908;BME280;22003;50.320;8.054;2023-02-18T16:19:53;100093.34;;;9.56;100.00
35908;BME280;22003;50.320;8.054;2023-02-18T16:22:25;100097.03;;;9.66;100.00
35908;BME280;22003;50.320;8.054;2023-02-18T16:25:16;100102.19;;;9.55;100.00
35908;BME280;22003;50.320;8.054;2023-02-18T16:28:09;100094.19;;;9.56;100.00
35908;BME280;22003;50.320;8.054;2023-02-18T16:30:35;100063.16;;;9.33;100.00
35908;BME280;22003;50.320;8.054;2023-02-18T16:33:01;100106.66;;;9.54;100.00
35908;BME280;22003;50.320;8.054;2023-02-18T16:35:29;100098.53;;;9.44;100.00
35908;BME280;22003;50.320;8.054;2023-02-18T16:37:55;100110.97;;;9.42;100.00
35908;BME280;22003;50.320;8.054;2023-02-18T16:40:32;100109.81;;;9.46;100.00
35908;BME280;22003;50.320;8.054;2023-02-18T16:43:04;100110.13;;;9.42;100.00
35908;BME280;22003;50.320;8.054;2023-02-18T16:45:36;100103.16;;;9.41;100.00
35908;BME280;22003;50.320;8.054;2023-02-18T16:48:03;100099.13;;;9.35;100.00
35908;BME280;22003;50.320;8.054;2023-02-18T16:50:30;100106.53;;;9.43;100.00
35908;BME280;22003;50.320;8.054;2023-02-18T16:52:57;100086.50;;;9.26;100.00
35908;BME280;22003;50.320;8.054;2023-02-18T16:55:25;100121.47;;;9.44;100.00
35908;BME280;22003;50.320;8.054;2023-02-18T16:57:51;100106.84;;;9.38;100.00
35908;BME280;22003;50.320;8.054;2023-02-18T17:00:17;100115.44;;;9.55;100.00
35908;BME280;22003;50.320;8.054;2023-02-18T17:02:47;100109.19;;;9.43;100.00
35908;BME280;22003;50.320;8.054;2023-02-18T17:05:23;100115.97;;;9.47;100.00
35908;BME280;22003;50.320;8.054;2023-02-18T17:07:49;100131.53;;;9.51;100.00
35908;BME280;22003;50.320;8.054;2023-02-18T17:10:14;100120.00;;;9.52;100.00
35908;BME280;22003;50.320;8.054;2023-02-18T17:12:40;100124.13;;;9.57;100.00
35908;BME280;22003;50.320;8.054;2023-02-18T17:15:25;100130.56;;;9.52;100.00
35908;BME280;22003;50.320;8.054;2023-02-18T17:17:51;100135.13;;;9.50;100.00
35908;BME280;22003;50.320;8.054;2023-02-18T17:20:17;100130.25;;;9.44;100.00
35908;BME280;22003;50.320;8.054;2023-02-18T17:22:43;100128.81;;;9.26;100.00
35908;BME280;22003;50.320;8.054;2023-02-18T17:25:13;100119.84;;;9.29;100.00
35908;BME280;22003;50.320;8.054;2023-02-18T17:27:38;100140.38;;;9.38;100.00
35908;BME280;22003;50.320;8.054;2023-02-18T17:30:04;100141.88;;;9.42;100.00
35908;BME280;22003;50.320;8.054;2023-02-18T17:32:29;100122.94;;;9.35;100.00
35908;BME280;22003;50.320;8.054;2023-02-18T17:34:55;100108.84;;;9.35;100.00
35908;BME280;22003;50.320;8.054;2023-02-18T17:37:20;100128.94;;;9.37;100.00
35908;BME280;22003;50.320;8.054;2023-02-18T17:39:45;100149.66;;;9.31;100.00
35908;BME280;22003;50.320;8.054;2023-02-18T17:42:11;100137.22;;;9.45;100.00
35908;BME280;22003;50.320;8.054;2023-02-18T17:44:37;100146.91;;;9.32;100.00
35908;BME280;22003;50.320;8.054;2023-02-18T17:47:04;100142.00;;;9.13;100.00
35908;BME280;22003;50.320;8.054;2023-02-18T17:49:29;100139.63;;;9.23;100.00
35908;BME280;22003;50.320;8.054;2023-02-18T17:51:54;100138.53;;;9.25;100.00
35908;BME280;22003;50.320;8.054;2023-02-18T17:54:19;100158.44;;;9.31;100.00
35908;BME280;22003;50.320;8.054;2023-02-18T17:56:46;100166.78;;;9.25;100.00
35908;BME280;22003;50.320;8.054;2023-02-18T17:59:12;100154.31;;;9.27;100.00
35908;BME280;22003;50.320;8.054;2023-02-18T18:01:37;100163.03;;;9.55;100.00
35908;BME280;22003;50.320;8.054;2023-02-18T18:04:03;100172.47;;;9.46;100.00
35908;BME280;22003;50.320;8.054;2023-02-18T18:06:28;100167.88;;;9.35;100.00
35908;BME280;22003;50.320;8.054;2023-02-18T18:08:54;100165.94;;;9.24;100.00
35908;BME280;22003;50.320;8.054;2023-02-18T18:11:22;100169.16;;;9.42;100.00
35908;BME280;22003;50.320;8.054;2023-02-18T18:13:48;100161.31;;;9.28;100.00
35908;BME280;22003;50.320;8.054;2023-02-18T18:16:15;100174.84;;;9.36;100.00
35908;BME280;22003;50.320;8.054;2023-02-18T18:18:41;100167.00;;;9.22;100.00
35908;BME280;22003;50.320;8.054;2023-02-18T18:21:15;100171.09;;;9.13;100.00
35908;BME280;22003;50.320;8.054;2023-02-18T18:23:42;100168.41;;;9.01;100.00
35908;BME280;22003;50.320;8.054;2023-02-18T18:26:08;100183.78;;;9.21;100.00
35908;BME280;22003;50.320;8.054;2023-02-18T18:28:33;100184.75;;;9.20;100.00
35908;BME280;22003;50.320;8.054;2023-02-18T18:30:58;100184.81;;;9.06;100.00
35908;BME280;22003;50.320;8.054;2023-02-18T18:33:28;100186.28;;;9.10;100.00
35908;BME280;22003;50.320;8.054;2023-02-18T18:35:55;100192.47;;;9.23;100.00
35908;BME280;22003;50.320;8.054;2023-02-18T18:38:22;100176.50;;;8.97;100.00
35908;BME280;22003;50.320;8.054;2023-02-18T18:40:49;100186.75;;;8.89;100.00
35908;BME280;22003;50.320;8.054;2023-02-18T18:45:42;100192.53;;;9.09;100.00
35908;BME280;22003;50.320;8.054;2023-02-18T18:48:08;100181.81;;;9.24;100.00
35908;BME280;22003;50.320;8.054;2023-02-18T18:50:33;100175.13;;;9.19;100.00
35908;BME280;22003;50.320;8.054;2023-02-18T18:53:00;100171.03;;;9.01;100.00
35908;BME280;22003;50.320;8.054;2023-02-18T18:55:29;100191.16;;;9.16;100.00
35908;BME280;22003;50.320;8.054;2023-02-18T18:57:55;100188.31;;;8.92;100.00
35908;BME280;22003;50.320;8.054;2023-02-18T19:00:27;100189.78;;;9.10;100.00
35908;BME280;22003;50.320;8.054;2023-02-18T19:02:53;100185.53;;;9.08;100.00
35908;BME280;22003;50.320;8.054;2023-02-18T19:05:27;100180.06;;;9.11;100.00
35908;BME280;22003;50.320;8.054;2023-02-18T19:07:53;100179.66;;;9.17;100.00
35908;BME280;22003;50.320;8.054;2023-02-18T19:10:19;100180.91;;;9.11;100.00
35908;BME280;22003;50.320;8.054;2023-02-18T19:12:45;100174.22;;;9.06;100.00
35908;BME280;22003;50.320;8.054;2023-02-18T19:15:21;100164.81;;;8.87;100.00
35908;BME280;22003;50.320;8.054;2023-02-18T19:17:51;100180.53;;;9.03;100.00